sensor_id;sensor_type;location;lat;lon;timestamp;P1;durP1;ratioP1;P2;durP2;ratioP2
81697;SDS011;71109;52.514;5.708;2023-07-28T00:01:51;38.00;;;13.73;;
81697;SDS011;71109;52.514;5.708;2023-07-28T00:04:16;36.03;;;13.98;;
81697;SDS011;71109;52.514;5.708;2023-07-28T00:06:42;37.93;;;14.80;;
81697;SDS011;71109;52.514;5.708;2023-07-28T00:09:07;37.97;;;12.38;;
81697;SDS011;71109;52.514;5.708;2023-07-28T00:11:33;31.85;;;13.52;;
81697;SDS011;71109;52.514;5.708;2023-07-28T00:13:58;41.13;;;13.95;;
81697;SDS011;71109;52.514;5.708;2023-07-28T00:16:23;33.10;;;14.07;;
81697;SDS011;71109;52.514;5.708;2023-07-28T00:18:49;32.83;;;13.97;;
81697;SDS011;71109;52.514;5.708;2023-07-28T00:21:14;38.85;;;14.55;;
81697;SDS011;71109;52.514;5.708;2023-07-28T00:23:39;45.33;;;14.85;;
81697;SDS011;71109;52.514;5.708;2023-07-28T00:26:05;33.17;;;13.60;;
81697;SDS011;71109;52.514;5.708;2023-07-28T00:28:31;47.78;;;13.95;;
81697;SDS011;71109;52.514;5.708;2023-07-28T00:30:56;39.43;;;13.80;;
81697;SDS011;71109;52.514;5.708;2023-07-28T00:33:21;34.47;;;13.45;;
81697;SDS011;71109;52.514;5.708;2023-07-28T00:35:47;39.90;;;14.55;;
81697;SDS011;71109;52.514;5.708;2023-07-28T00:38:12;40.60;;;14.43;;
81697;SDS011;71109;52.514;5.708;2023-07-28T00:40:37;35.20;;;13.40;;
81697;SDS011;71109;52.514;5.708;2023-07-28T00:43:03;39.30;;;14.13;;
81697;SDS011;71109;52.514;5.708;2023-07-28T00:45:29;39.60;;;13.27;;
81697;SDS011;71109;52.514;5.708;2023-07-28T00:47:55;36.80;;;15.82;;
81697;SDS011;71109;52.514;5.708;2023-07-28T00:50:22;37.25;;;13.68;;
81697;SDS011;71109;52.514;5.708;2023-07-28T00:52:48;32.58;;;12.70;;
81697;SDS011;71109;52.514;5.708;2023-07-28T00:55:14;38.45;;;14.15;;
81697;SDS011;71109;52.514;5.708;2023-07-28T00:57:39;35.35;;;14.82;;
81697;SDS011;71109;52.514;5.708;2023-07-28T01:00:05;40.53;;;15.63;;
81697;SDS011;71109;52.514;5.708;2023-07-28T01:02:31;38.58;;;14.52;;
81697;SDS011;71109;52.514;5.708;2023-07-28T01:04:56;37.50;;;13.85;;
81697;SDS011;71109;52.514;5.708;2023-07-28T01:10:17;39.05;;;15.50;;
81697;SDS011;71109;52.514;5.708;2023-07-28T01:12:45;31.50;;;12.95;;
81697;SDS011;71109;52.514;5.708;2023-07-28T01:15:10;41.27;;;15.13;;
81697;SDS011;71109;52.514;5.708;2023-07-28T01:17:36;28.67;;;11.60;;
81697;SDS011;71109;52.514;5.708;2023-07-28T01:20:01;29.70;;;13.18;;
81697;SDS011;71109;52.514;5.708;2023-07-28T01:25:21;36.08;;;12.27;;
81697;SDS011;71109;52.514;5.708;2023-07-28T01:27:48;31.60;;;11.98;;
81697;SDS011;71109;52.514;5.708;2023-07-28T01:30:14;31.88;;;13.10;;
81697;SDS011;71109;52.514;5.708;2023-07-28T01:32:40;39.90;;;13.48;;
81697;SDS011;71109;52.514;5.708;2023-07-28T01:35:06;38.17;;;13.15;;
81697;SDS011;71109;52.514;5.708;2023-07-28T01:37:32;34.30;;;12.82;;
81697;SDS011;71109;52.514;5.708;2023-07-28T01:39:57;32.88;;;12.27;;
81697;SDS011;71109;52.514;5.708;2023-07-28T01:42:23;32.10;;;14.00;;
81697;SDS011;71109;52.514;5.708;2023-07-28T01:44:48;38.65;;;13.82;;
81697;SDS011;71109;52.514;5.708;2023-07-28T01:47:15;30.92;;;12.00;;
81697;SDS011;71109;52.514;5.708;2023-07-28T01:49:40;31.08;;;11.77;;
81697;SDS011;71109;52.514;5.708;2023-07-28T01:52:05;32.60;;;12.03;;
81697;SDS011;71109;52.514;5.708;2023-07-28T01:54:31;31.35;;;11.88;;
81697;SDS011;71109;52.514;5.708;2023-07-28T01:56:56;29.67;;;13.43;;
81697;SDS011;71109;52.514;5.708;2023-07-28T01:59:21;32.50;;;12.80;;
81697;SDS011;71109;52.514;5.708;2023-07-28T02:01:47;32.15;;;13.45;;
81697;SDS011;71109;52.514;5.708;2023-07-28T02:04:12;38.42;;;13.15;;
81697;SDS011;71109;52.514;5.708;2023-07-28T02:06:38;34.72;;;12.98;;
81697;SDS011;71109;52.514;5.708;2023-07-28T02:09:03;36.10;;;14.15;;
81697;SDS011;71109;52.514;5.708;2023-07-28T02:11:29;34.85;;;12.32;;
81697;SDS011;71109;52.514;5.708;2023-07-28T02:13:54;33.47;;;12.85;;
81697;SDS011;71109;52.514;5.708;2023-07-28T02:16:19;35.33;;;12.68;;
81697;SDS011;71109;52.514;5.708;2023-07-28T02:18:45;49.47;;;13.63;;
81697;SDS011;71109;52.514;5.708;2023-07-28T02:21:10;34.20;;;12.52;;
81697;SDS011;71109;52.514;5.708;2023-07-28T02:23:36;39.03;;;14.65;;
81697;SDS011;71109;52.514;5.708;2023-07-28T02:26:01;39.20;;;13.80;;
81697;SDS011;71109;52.514;5.708;2023-07-28T02:28:26;49.47;;;14.93;;
81697;SDS011;71109;52.514;5.708;2023-07-28T02:30:52;45.37;;;15.27;;
81697;SDS011;71109;52.514;5.708;2023-07-28T02:33:17;41.00;;;13.57;;
81697;SDS011;71109;52.514;5.708;2023-07-28T02:35:42;47.08;;;15.13;;
81697;SDS011;71109;52.514;5.708;2023-07-28T02:38:08;36.95;;;16.20;;
81697;SDS011;71109;52.514;5.708;2023-07-28T02:40:33;48.28;;;15.10;;
81697;SDS011;71109;52.514;5.708;2023-07-28T02:42:59;43.25;;;15.32;;
81697;SDS011;71109;52.514;5.708;2023-07-28T02:45:24;46.15;;;16.92;;
81697;SDS011;71109;52.514;5.708;2023-07-28T02:47:50;40.45;;;13.98;;
81697;SDS011;71109;52.514;5.708;2023-07-28T02:50:16;44.78;;;14.75;;
81697;SDS011;71109;52.514;5.708;2023-07-28T02:52:41;41.05;;;14.60;;
81697;SDS011;71109;52.514;5.708;2023-07-28T02:55:07;47.72;;;15.55;;
81697;SDS011;71109;52.514;5.708;2023-07-28T02:57:32;34.72;;;15.10;;
81697;SDS011;71109;52.514;5.708;2023-07-28T02:59:58;42.97;;;15.67;;
81697;SDS011;71109;52.514;5.708;2023-07-28T03:02:23;45.13;;;14.95;;
81697;SDS011;71109;52.514;5.708;2023-07-28T03:04:49;45.55;;;16.17;;
81697;SDS011;71109;52.514;5.708;2023-07-28T03:07:14;35.28;;;13.77;;
81697;SDS011;71109;52.514;5.708;2023-07-28T03:09:40;44.47;;;14.90;;
81697;SDS011;71109;52.514;5.708;2023-07-28T03:12:05;44.63;;;13.98;;
81697;SDS011;71109;52.514;5.708;2023-07-28T03:14:31;44.00;;;14.75;;
81697;SDS011;71109;52.514;5.708;2023-07-28T03:16:57;40.67;;;13.85;;
81697;SDS011;71109;52.514;5.708;2023-07-28T03:19:22;43.53;;;15.45;;
81697;SDS011;71109;52.514;5.708;2023-07-28T03:21:48;51.78;;;16.23;;
81697;SDS011;71109;52.514;5.708;2023-07-28T03:24:13;40.92;;;16.08;;
81697;SDS011;71109;52.514;5.708;2023-07-28T03:26:38;38.55;;;14.55;;
81697;SDS011;71109;52.514;5.708;2023-07-28T03:29:04;39.53;;;15.80;;
81697;SDS011;71109;52.514;5.708;2023-07-28T03:31:29;52.83;;;18.08;;
81697;SDS011;71109;52.514;5.708;2023-07-28T03:33:55;40.63;;;16.00;;
81697;SDS011;71109;52.514;5.708;2023-07-28T03:36:20;46.30;;;15.65;;
81697;SDS011;71109;52.514;5.708;2023-07-28T03:38:45;48.83;;;16.95;;
81697;SDS011;71109;52.514;5.708;2023-07-28T03:41:12;43.38;;;15.57;;
81697;SDS011;71109;52.514;5.708;2023-07-28T03:43:37;41.60;;;16.48;;
81697;SDS011;71109;52.514;5.708;2023-07-28T03:46:03;57.33;;;18.88;;
81697;SDS011;71109;52.514;5.708;2023-07-28T03:48:28;43.88;;;17.10;;
81697;SDS011;71109;52.514;5.708;2023-07-28T03:50:53;48.63;;;17.23;;
81697;SDS011;71109;52.514;5.708;2023-07-28T03:53:19;41.83;;;18.33;;
81697;SDS011;71109;52.514;5.708;2023-07-28T03:55:44;49.37;;;16.80;;
81697;SDS011;71109;52.514;5.708;2023-07-28T03:58:10;46.47;;;16.75;;
81697;SDS011;71109;52.514;5.708;2023-07-28T04:00:35;42.20;;;15.85;;
81697;SDS011;71109;52.514;5.708;2023-07-28T04:03:00;48.90;;;17.77;;
81697;SDS011;71109;52.514;5.708;2023-07-28T04:05:26;41.45;;;16.00;;
81697;SDS011;71109;52.514;5.708;2023-07-28T04:07:51;47.92;;;16.17;;
81697;SDS011;71109;52.514;5.708;2023-07-28T04:10:16;44.28;;;17.92;;
81697;SDS011;71109;52.514;5.708;2023-07-28T04:12:42;55.72;;;17.48;;
81697;SDS011;71109;52.514;5.708;2023-07-28T04:15:07;54.20;;;16.87;;
81697;SDS011;71109;52.514;5.708;2023-07-28T04:17:33;45.13;;;18.13;;
81697;SDS011;71109;52.514;5.708;2023-07-28T04:19:58;54.47;;;17.43;;
81697;SDS011;71109;52.514;5.708;2023-07-28T04:22:24;60.05;;;19.83;;
81697;SDS011;71109;52.514;5.708;2023-07-28T04:24:49;54.85;;;18.17;;
81697;SDS011;71109;52.514;5.708;2023-07-28T04:27:15;53.35;;;18.80;;
81697;SDS011;71109;52.514;5.708;2023-07-28T04:29:40;53.17;;;19.65;;
81697;SDS011;71109;52.514;5.708;2023-07-28T04:32:06;60.00;;;18.25;;
81697;SDS011;71109;52.514;5.708;2023-07-28T04:34:35;47.85;;;16.45;;
81697;SDS011;71109;52.514;5.708;2023-07-28T04:37:00;53.42;;;20.02;;
81697;SDS011;71109;52.514;5.708;2023-07-28T04:39:26;59.70;;;16.92;;
81697;SDS011;71109;52.514;5.708;2023-07-28T04:41:51;49.35;;;17.85;;
81697;SDS011;71109;52.514;5.708;2023-07-28T04:44:17;53.53;;;17.83;;
81697;SDS011;71109;52.514;5.708;2023-07-28T04:46:43;46.92;;;16.67;;
81697;SDS011;71109;52.514;5.708;2023-07-28T04:49:08;41.80;;;16.73;;
81697;SDS011;71109;52.514;5.708;2023-07-28T04:51:33;52.50;;;18.48;;
81697;SDS011;71109;52.514;5.708;2023-07-28T04:53:59;48.27;;;16.80;;
81697;SDS011;71109;52.514;5.708;2023-07-28T04:56:24;44.25;;;15.27;;
81697;SDS011;71109;52.514;5.708;2023-07-28T04:58:49;38.13;;;16.67;;
81697;SDS011;71109;52.514;5.708;2023-07-28T05:01:15;47.20;;;16.85;;
81697;SDS011;71109;52.514;5.708;2023-07-28T05:03:40;41.97;;;16.02;;
81697;SDS011;71109;52.514;5.708;2023-07-28T05:06:06;36.83;;;15.40;;
81697;SDS011;71109;52.514;5.708;2023-07-28T05:08:31;47.75;;;17.60;;
81697;SDS011;71109;52.514;5.708;2023-07-28T05:10:57;40.75;;;16.40;;
81697;SDS011;71109;52.514;5.708;2023-07-28T05:13:22;43.63;;;16.37;;
81697;SDS011;71109;52.514;5.708;2023-07-28T05:15:48;56.17;;;17.33;;
81697;SDS011;71109;52.514;5.708;2023-07-28T05:18:13;45.70;;;16.20;;
81697;SDS011;71109;52.514;5.708;2023-07-28T05:20:38;34.47;;;14.88;;
81697;SDS011;71109;52.514;5.708;2023-07-28T05:23:03;43.50;;;16.17;;
81697;SDS011;71109;52.514;5.708;2023-07-28T05:25:29;38.23;;;15.63;;
81697;SDS011;71109;52.514;5.708;2023-07-28T05:27:55;37.85;;;15.43;;
81697;SDS011;71109;52.514;5.708;2023-07-28T05:30:20;47.70;;;15.98;;
81697;SDS011;71109;52.514;5.708;2023-07-28T05:32:46;37.47;;;14.40;;
81697;SDS011;71109;52.514;5.708;2023-07-28T05:35:12;47.38;;;14.68;;
81697;SDS011;71109;52.514;5.708;2023-07-28T05:37:38;32.88;;;14.10;;
81697;SDS011;71109;52.514;5.708;2023-07-28T05:40:03;29.70;;;12.70;;
81697;SDS011;71109;52.514;5.708;2023-07-28T05:42:29;37.65;;;12.13;;
81697;SDS011;71109;52.514;5.708;2023-07-28T05:44:54;29.47;;;13.13;;
81697;SDS011;71109;52.514;5.708;2023-07-28T05:47:20;36.42;;;13.27;;
81697;SDS011;71109;52.514;5.708;2023-07-28T05:49:46;25.38;;;11.35;;
81697;SDS011;71109;52.514;5.708;2023-07-28T05:52:11;32.45;;;11.85;;
81697;SDS011;71109;52.514;5.708;2023-07-28T05:54:37;27.75;;;11.80;;
81697;SDS011;71109;52.514;5.708;2023-07-28T05:57:02;30.35;;;11.30;;
81697;SDS011;71109;52.514;5.708;2023-07-28T05:59:30;30.17;;;11.23;;
81697;SDS011;71109;52.514;5.708;2023-07-28T06:01:55;26.50;;;10.73;;
81697;SDS011;71109;52.514;5.708;2023-07-28T06:04:20;24.93;;;10.23;;
81697;SDS011;71109;52.514;5.708;2023-07-28T06:06:46;23.85;;;10.73;;
81697;SDS011;71109;52.514;5.708;2023-07-28T06:09:12;28.63;;;10.88;;
81697;SDS011;71109;52.514;5.708;2023-07-28T06:11:37;22.67;;;10.95;;
81697;SDS011;71109;52.514;5.708;2023-07-28T06:14:03;24.05;;;11.32;;
81697;SDS011;71109;52.514;5.708;2023-07-28T06:16:28;33.88;;;12.20;;
81697;SDS011;71109;52.514;5.708;2023-07-28T06:18:53;34.38;;;12.77;;
81697;SDS011;71109;52.514;5.708;2023-07-28T06:21:19;45.25;;;13.93;;
81697;SDS011;71109;52.514;5.708;2023-07-28T06:23:44;38.20;;;12.03;;
81697;SDS011;71109;52.514;5.708;2023-07-28T06:26:10;28.85;;;12.32;;
81697;SDS011;71109;52.514;5.708;2023-07-28T06:28:35;35.35;;;13.50;;
81697;SDS011;71109;52.514;5.708;2023-07-28T06:31:04;33.67;;;14.05;;
81697;SDS011;71109;52.514;5.708;2023-07-28T06:33:30;36.25;;;12.90;;
81697;SDS011;71109;52.514;5.708;2023-07-28T06:35:55;39.47;;;12.40;;
81697;SDS011;71109;52.514;5.708;2023-07-28T06:38:20;36.25;;;13.13;;
81697;SDS011;71109;52.514;5.708;2023-07-28T06:40:46;36.33;;;14.15;;
81697;SDS011;71109;52.514;5.708;2023-07-28T06:43:11;35.53;;;12.75;;
81697;SDS011;71109;52.514;5.708;2023-07-28T06:45:37;52.95;;;15.40;;
81697;SDS011;71109;52.514;5.708;2023-07-28T06:48:03;30.17;;;13.20;;
81697;SDS011;71109;52.514;5.708;2023-07-28T06:50:28;28.77;;;11.85;;
81697;SDS011;71109;52.514;5.708;2023-07-28T06:52:53;38.30;;;12.45;;
81697;SDS011;71109;52.514;5.708;2023-07-28T06:55:19;25.07;;;12.40;;
81697;SDS011;71109;52.514;5.708;2023-07-28T06:57:46;29.63;;;12.80;;
81697;SDS011;71109;52.514;5.708;2023-07-28T07:00:12;31.35;;;13.20;;
81697;SDS011;71109;52.514;5.708;2023-07-28T07:02:38;29.10;;;11.57;;
81697;SDS011;71109;52.514;5.708;2023-07-28T07:05:03;28.40;;;11.45;;
81697;SDS011;71109;52.514;5.708;2023-07-28T07:07:29;28.90;;;11.45;;
81697;SDS011;71109;52.514;5.708;2023-07-28T07:09:57;21.20;;;11.10;;
81697;SDS011;71109;52.514;5.708;2023-07-28T07:12:22;24.80;;;8.82;;
81697;SDS011;71109;52.514;5.708;2023-07-28T07:14:47;27.27;;;9.13;;
81697;SDS011;71109;52.514;5.708;2023-07-28T07:17:13;17.53;;;8.07;;
81697;SDS011;71109;52.514;5.708;2023-07-28T07:19:39;32.10;;;10.15;;
81697;SDS011;71109;52.514;5.708;2023-07-28T07:22:04;27.42;;;11.65;;
81697;SDS011;71109;52.514;5.708;2023-07-28T07:24:30;24.08;;;10.52;;
81697;SDS011;71109;52.514;5.708;2023-07-28T07:26:56;27.92;;;9.43;;
81697;SDS011;71109;52.514;5.708;2023-07-28T07:29:21;23.23;;;9.82;;
81697;SDS011;71109;52.514;5.708;2023-07-28T07:31:46;22.38;;;10.52;;
81697;SDS011;71109;52.514;5.708;2023-07-28T07:34:12;24.50;;;10.20;;
81697;SDS011;71109;52.514;5.708;2023-07-28T07:36:37;33.22;;;11.20;;
81697;SDS011;71109;52.514;5.708;2023-07-28T07:39:04;26.25;;;10.15;;
81697;SDS011;71109;52.514;5.708;2023-07-28T07:41:30;23.15;;;10.88;;
81697;SDS011;71109;52.514;5.708;2023-07-28T07:43:56;26.23;;;12.02;;
81697;SDS011;71109;52.514;5.708;2023-07-28T07:46:22;33.35;;;10.27;;
81697;SDS011;71109;52.514;5.708;2023-07-28T07:48:47;30.77;;;11.35;;
81697;SDS011;71109;52.514;5.708;2023-07-28T07:51:13;29.83;;;12.02;;
81697;SDS011;71109;52.514;5.708;2023-07-28T07:53:39;32.00;;;12.48;;
81697;SDS011;71109;52.514;5.708;2023-07-28T07:56:05;19.08;;;10.25;;
81697;SDS011;71109;52.514;5.708;2023-07-28T07:58:34;23.23;;;10.80;;
81697;SDS011;71109;52.514;5.708;2023-07-28T08:01:00;21.10;;;10.05;;
81697;SDS011;71109;52.514;5.708;2023-07-28T08:03:25;25.70;;;11.83;;
81697;SDS011;71109;52.514;5.708;2023-07-28T08:05:51;28.08;;;11.20;;
81697;SDS011;71109;52.514;5.708;2023-07-28T08:08:17;23.85;;;10.57;;
81697;SDS011;71109;52.514;5.708;2023-07-28T08:10:44;32.85;;;11.07;;
81697;SDS011;71109;52.514;5.708;2023-07-28T08:13:10;22.38;;;10.57;;
81697;SDS011;71109;52.514;5.708;2023-07-28T08:15:36;25.08;;;10.10;;
81697;SDS011;71109;52.514;5.708;2023-07-28T08:18:01;21.80;;;10.68;;
81697;SDS011;71109;52.514;5.708;2023-07-28T08:20:26;24.92;;;12.02;;
81697;SDS011;71109;52.514;5.708;2023-07-28T08:22:52;27.08;;;11.38;;
81697;SDS011;71109;52.514;5.708;2023-07-28T08:25:17;26.23;;;11.30;;
81697;SDS011;71109;52.514;5.708;2023-07-28T08:27:43;27.00;;;10.70;;
81697;SDS011;71109;52.514;5.708;2023-07-28T08:30:09;26.42;;;12.20;;
81697;SDS011;71109;52.514;5.708;2023-07-28T08:32:35;25.48;;;12.48;;
81697;SDS011;71109;52.514;5.708;2023-07-28T08:35:00;24.80;;;12.32;;
81697;SDS011;71109;52.514;5.708;2023-07-28T08:37:26;28.00;;;12.90;;
81697;SDS011;71109;52.514;5.708;2023-07-28T08:39:52;28.38;;;13.20;;
81697;SDS011;71109;52.514;5.708;2023-07-28T08:42:18;31.17;;;13.50;;
81697;SDS011;71109;52.514;5.708;2023-07-28T08:44:43;36.28;;;14.32;;
81697;SDS011;71109;52.514;5.708;2023-07-28T08:47:10;40.30;;;15.52;;
81697;SDS011;71109;52.514;5.708;2023-07-28T08:49:35;32.42;;;14.05;;
81697;SDS011;71109;52.514;5.708;2023-07-28T08:52:02;41.80;;;15.00;;
81697;SDS011;71109;52.514;5.708;2023-07-28T08:54:28;35.33;;;13.50;;
81697;SDS011;71109;52.514;5.708;2023-07-28T08:56:54;29.15;;;14.32;;
81697;SDS011;71109;52.514;5.708;2023-07-28T08:59:23;34.88;;;13.82;;
81697;SDS011;71109;52.514;5.708;2023-07-28T09:01:51;30.42;;;14.57;;
81697;SDS011;71109;52.514;5.708;2023-07-28T09:04:20;36.70;;;15.60;;
81697;SDS011;71109;52.514;5.708;2023-07-28T09:06:46;42.10;;;15.27;;
81697;SDS011;71109;52.514;5.708;2023-07-28T09:09:16;35.47;;;16.48;;
81697;SDS011;71109;52.514;5.708;2023-07-28T09:11:46;39.85;;;15.13;;
81697;SDS011;71109;52.514;5.708;2023-07-28T09:14:12;27.40;;;14.60;;
81697;SDS011;71109;52.514;5.708;2023-07-28T09:16:38;37.95;;;14.48;;
81697;SDS011;71109;52.514;5.708;2023-07-28T09:19:04;33.80;;;13.85;;
81697;SDS011;71109;52.514;5.708;2023-07-28T09:21:31;37.25;;;14.60;;
81697;SDS011;71109;52.514;5.708;2023-07-28T09:23:59;25.90;;;13.02;;
81697;SDS011;71109;52.514;5.708;2023-07-28T09:26:35;36.63;;;14.38;;
81697;SDS011;71109;52.514;5.708;2023-07-28T09:29:20;37.60;;;14.43;;
81697;SDS011;71109;52.514;5.708;2023-07-28T09:31:46;37.20;;;16.67;;
81697;SDS011;71109;52.514;5.708;2023-07-28T09:34:12;28.30;;;13.80;;
81697;SDS011;71109;52.514;5.708;2023-07-28T09:36:48;37.53;;;16.33;;
81697;SDS011;71109;52.514;5.708;2023-07-28T09:39:14;36.63;;;14.98;;
81697;SDS011;71109;52.514;5.708;2023-07-28T09:41:39;28.63;;;14.65;;
81697;SDS011;71109;52.514;5.708;2023-07-28T09:44:04;31.55;;;14.13;;
81697;SDS011;71109;52.514;5.708;2023-07-28T09:46:32;25.23;;;12.48;;
81697;SDS011;71109;52.514;5.708;2023-07-28T09:48:59;30.73;;;12.23;;
81697;SDS011;71109;52.514;5.708;2023-07-28T09:51:26;26.02;;;12.80;;
81697;SDS011;71109;52.514;5.708;2023-07-28T09:54:02;24.30;;;12.50;;
81697;SDS011;71109;52.514;5.708;2023-07-28T09:56:30;32.25;;;12.15;;
81697;SDS011;71109;52.514;5.708;2023-07-28T09:58:55;27.80;;;12.68;;
81697;SDS011;71109;52.514;5.708;2023-07-28T10:01:21;19.15;;;10.52;;
81697;SDS011;71109;52.514;5.708;2023-07-28T10:03:47;27.05;;;12.13;;
81697;SDS011;71109;52.514;5.708;2023-07-28T10:06:12;23.20;;;10.85;;
81697;SDS011;71109;52.514;5.708;2023-07-28T10:08:38;29.33;;;11.13;;
81697;SDS011;71109;52.514;5.708;2023-07-28T10:11:04;24.73;;;10.43;;
81697;SDS011;71109;52.514;5.708;2023-07-28T10:13:33;18.20;;;9.13;;
81697;SDS011;71109;52.514;5.708;2023-07-28T10:16:06;20.27;;;9.65;;
81697;SDS011;71109;52.514;5.708;2023-07-28T10:18:32;22.67;;;9.75;;
81697;SDS011;71109;52.514;5.708;2023-07-28T10:21:04;24.63;;;9.52;;
81697;SDS011;71109;52.514;5.708;2023-07-28T10:23:38;14.15;;;7.88;;
81697;SDS011;71109;52.514;5.708;2023-07-28T10:26:04;16.15;;;8.05;;
81697;SDS011;71109;52.514;5.708;2023-07-28T10:28:36;14.18;;;7.45;;
81697;SDS011;71109;52.514;5.708;2023-07-28T10:31:06;15.95;;;7.43;;
81697;SDS011;71109;52.514;5.708;2023-07-28T10:33:33;12.13;;;6.90;;
81697;SDS011;71109;52.514;5.708;2023-07-28T10:36:10;12.00;;;5.95;;
81697;SDS011;71109;52.514;5.708;2023-07-28T10:38:36;15.60;;;6.28;;
81697;SDS011;71109;52.514;5.708;2023-07-28T10:41:05;15.13;;;7.70;;
81697;SDS011;71109;52.514;5.708;2023-07-28T10:43:32;20.15;;;7.68;;
81697;SDS011;71109;52.514;5.708;2023-07-28T10:45:58;14.55;;;6.93;;
81697;SDS011;71109;52.514;5.708;2023-07-28T10:48:25;14.68;;;6.38;;
81697;SDS011;71109;52.514;5.708;2023-07-28T10:50:50;17.33;;;6.65;;
81697;SDS011;71109;52.514;5.708;2023-07-28T10:53:15;9.80;;;5.43;;
81697;SDS011;71109;52.514;5.708;2023-07-28T10:55:41;9.95;;;5.00;;
81697;SDS011;71109;52.514;5.708;2023-07-28T10:58:06;10.77;;;5.63;;
81697;SDS011;71109;52.514;5.708;2023-07-28T11:00:32;14.97;;;5.93;;
81697;SDS011;71109;52.514;5.708;2023-07-28T11:02:57;12.05;;;5.38;;
81697;SDS011;71109;52.514;5.708;2023-07-28T11:05:23;10.20;;;5.10;;
81697;SDS011;71109;52.514;5.708;2023-07-28T11:07:56;10.00;;;5.25;;
81697;SDS011;71109;52.514;5.708;2023-07-28T11:10:22;11.60;;;5.10;;
81697;SDS011;71109;52.514;5.708;2023-07-28T11:12:49;7.63;;;4.78;;
81697;SDS011;71109;52.514;5.708;2023-07-28T11:15:16;8.98;;;4.57;;
81697;SDS011;71109;52.514;5.708;2023-07-28T11:17:48;11.77;;;4.43;;
81697;SDS011;71109;52.514;5.708;2023-07-28T11:20:15;13.50;;;5.00;;
81697;SDS011;71109;52.514;5.708;2023-07-28T11:22:45;15.98;;;5.82;;
81697;SDS011;71109;52.514;5.708;2023-07-28T11:25:12;12.77;;;4.93;;
81697;SDS011;71109;52.514;5.708;2023-07-28T11:27:38;11.50;;;5.50;;
81697;SDS011;71109;52.514;5.708;2023-07-28T11:30:04;10.73;;;5.13;;
81697;SDS011;71109;52.514;5.708;2023-07-28T11:32:34;17.98;;;5.68;;
81697;SDS011;71109;52.514;5.708;2023-07-28T11:35:03;8.73;;;5.38;;
81697;SDS011;71109;52.514;5.708;2023-07-28T11:37:29;14.15;;;4.95;;
81697;SDS011;71109;52.514;5.708;2023-07-28T11:39:55;12.57;;;5.88;;
81697;SDS011;71109;52.514;5.708;2023-07-28T11:42:20;8.32;;;4.95;;
81697;SDS011;71109;52.514;5.708;2023-07-28T11:44:46;9.35;;;5.47;;
81697;SDS011;71109;52.514;5.708;2023-07-28T11:47:16;10.20;;;4.85;;
81697;SDS011;71109;52.514;5.708;2023-07-28T11:49:46;11.55;;;5.05;;
81697;SDS011;71109;52.514;5.708;2023-07-28T11:52:12;10.80;;;5.22;;
81697;SDS011;71109;52.514;5.708;2023-07-28T11:54:38;8.20;;;4.60;;
81697;SDS011;71109;52.514;5.708;2023-07-28T11:57:03;10.45;;;5.97;;
81697;SDS011;71109;52.514;5.708;2023-07-28T11:59:29;17.40;;;5.93;;
81697;SDS011;71109;52.514;5.708;2023-07-28T12:01:55;12.27;;;5.47;;
81697;SDS011;71109;52.514;5.708;2023-07-28T12:04:28;8.68;;;5.07;;
81697;SDS011;71109;52.514;5.708;2023-07-28T12:07:11;9.63;;;4.97;;
81697;SDS011;71109;52.514;5.708;2023-07-28T12:12:20;9.55;;;4.95;;
81697;SDS011;71109;52.514;5.708;2023-07-28T12:14:46;13.48;;;5.28;;
81697;SDS011;71109;52.514;5.708;2023-07-28T12:17:16;12.13;;;3.70;;
81697;SDS011;71109;52.514;5.708;2023-07-28T12:22:35;10.65;;;4.35;;
81697;SDS011;71109;52.514;5.708;2023-07-28T12:25:01;6.05;;;3.70;;
81697;SDS011;71109;52.514;5.708;2023-07-28T12:27:26;7.22;;;4.57;;
81697;SDS011;71109;52.514;5.708;2023-07-28T12:29:52;6.53;;;3.70;;
81697;SDS011;71109;52.514;5.708;2023-07-28T12:32:18;7.78;;;4.30;;
81697;SDS011;71109;52.514;5.708;2023-07-28T12:34:43;8.50;;;4.07;;
81697;SDS011;71109;52.514;5.708;2023-07-28T12:37:08;6.22;;;3.60;;
81697;SDS011;71109;52.514;5.708;2023-07-28T12:39:37;7.80;;;4.03;;
81697;SDS011;71109;52.514;5.708;2023-07-28T12:42:06;9.57;;;4.05;;
81697;SDS011;71109;52.514;5.708;2023-07-28T12:44:33;8.63;;;4.85;;
81697;SDS011;71109;52.514;5.708;2023-07-28T12:46:58;7.03;;;3.80;;
81697;SDS011;71109;52.514;5.708;2023-07-28T12:49:24;7.90;;;3.40;;
81697;SDS011;71109;52.514;5.708;2023-07-28T12:51:49;5.77;;;3.37;;
81697;SDS011;71109;52.514;5.708;2023-07-28T12:54:15;11.95;;;3.60;;
81697;SDS011;71109;52.514;5.708;2023-07-28T12:56:40;8.00;;;3.38;;
81697;SDS011;71109;52.514;5.708;2023-07-28T12:59:06;7.18;;;4.13;;
81697;SDS011;71109;52.514;5.708;2023-07-28T13:01:31;5.43;;;3.38;;
81697;SDS011;71109;52.514;5.708;2023-07-28T13:03:56;6.53;;;3.60;;
81697;SDS011;71109;52.514;5.708;2023-07-28T13:06:22;7.43;;;3.50;;
81697;SDS011;71109;52.514;5.708;2023-07-28T13:08:47;9.73;;;4.25;;
81697;SDS011;71109;52.514;5.708;2023-07-28T13:11:12;7.07;;;4.17;;
81697;SDS011;71109;52.514;5.708;2023-07-28T13:13:39;6.72;;;3.85;;
81697;SDS011;71109;52.514;5.708;2023-07-28T13:16:05;6.95;;;4.07;;
81697;SDS011;71109;52.514;5.708;2023-07-28T13:18:31;9.15;;;4.45;;
81697;SDS011;71109;52.514;5.708;2023-07-28T13:20:57;10.35;;;4.28;;
81697;SDS011;71109;52.514;5.708;2023-07-28T13:23:23;9.35;;;3.92;;
81697;SDS011;71109;52.514;5.708;2023-07-28T13:25:48;7.85;;;3.72;;
81697;SDS011;71109;52.514;5.708;2023-07-28T13:28:14;11.20;;;4.03;;
81697;SDS011;71109;52.514;5.708;2023-07-28T13:30:39;7.55;;;4.18;;
81697;SDS011;71109;52.514;5.708;2023-07-28T13:33:05;10.45;;;4.30;;
81697;SDS011;71109;52.514;5.708;2023-07-28T13:35:31;7.20;;;3.55;;
81697;SDS011;71109;52.514;5.708;2023-07-28T13:37:57;9.68;;;3.65;;
81697;SDS011;71109;52.514;5.708;2023-07-28T13:40:22;5.13;;;3.13;;
81697;SDS011;71109;52.514;5.708;2023-07-28T13:42:47;6.95;;;3.22;;
81697;SDS011;71109;52.514;5.708;2023-07-28T13:45:13;11.05;;;2.95;;
81697;SDS011;71109;52.514;5.708;2023-07-28T13:47:38;7.57;;;3.22;;
81697;SDS011;71109;52.514;5.708;2023-07-28T13:50:04;7.18;;;2.90;;
81697;SDS011;71109;52.514;5.708;2023-07-28T13:52:30;5.75;;;3.13;;
81697;SDS011;71109;52.514;5.708;2023-07-28T13:54:55;5.17;;;3.50;;
81697;SDS011;71109;52.514;5.708;2023-07-28T13:57:20;5.70;;;2.85;;
81697;SDS011;71109;52.514;5.708;2023-07-28T13:59:46;4.90;;;2.65;;
81697;SDS011;71109;52.514;5.708;2023-07-28T14:02:11;5.13;;;2.53;;
81697;SDS011;71109;52.514;5.708;2023-07-28T14:04:37;5.90;;;2.97;;
81697;SDS011;71109;52.514;5.708;2023-07-28T14:07:02;4.43;;;2.83;;
81697;SDS011;71109;52.514;5.708;2023-07-28T14:09:28;5.22;;;2.60;;
81697;SDS011;71109;52.514;5.708;2023-07-28T14:11:53;3.93;;;2.70;;
81697;SDS011;71109;52.514;5.708;2023-07-28T14:14:18;4.18;;;2.78;;
81697;SDS011;71109;52.514;5.708;2023-07-28T14:16:44;10.50;;;3.17;;
81697;SDS011;71109;52.514;5.708;2023-07-28T14:19:09;4.32;;;2.67;;
81697;SDS011;71109;52.514;5.708;2023-07-28T14:21:35;8.02;;;3.42;;
81697;SDS011;71109;52.514;5.708;2023-07-28T14:24:03;6.80;;;2.97;;
81697;SDS011;71109;52.514;5.708;2023-07-28T14:26:31;11.68;;;3.95;;
81697;SDS011;71109;52.514;5.708;2023-07-28T14:28:57;6.97;;;2.60;;
81697;SDS011;71109;52.514;5.708;2023-07-28T14:31:22;6.00;;;3.27;;
81697;SDS011;71109;52.514;5.708;2023-07-28T14:33:47;5.15;;;2.80;;